WATT/KOE METAR and TAF weather

Enter ICAO airport designator
Station Type Date Time Source
WATT METAR 2023/02/05 12:00 UTC NOAA

WATT 051200Z 26004KT 8000 -RA FEW015CB BKN017 OVC090 26/25 Q1007 NOSIG CB TO E


Station Type Date Time Source
WATT Decoded METAR 2023/02/05 12:00 UTC NOAA

Station name not available
Feb 05, 2023 - 07:00 AM EST / 2023.02.05 1200 UTC
Wind: from the W (260 degrees) at 5 MPH (4 KT):0
Visibility: 4 mile(s):0
Sky conditions: overcast
Weather: light rain; Cumulonimbus clouds observed
Temperature: 78 F (26 C)
Dew Point: 77 F (25 C)
Relative Humidity: 94%
Pressure (altimeter): 29.74 in. Hg (1007 hPa)
ob: WATT 051200Z 26004KT 8000 -RA FEW015CB BKN017 OVC090 26/25 Q1007 NOSIG CB TO E
cycle: 12

Station Type Date Time Source
WATT TAF 2023/02/05 12:00 UTC NOAA

TAF WATT 051100Z 0512/0612 30005KT 8000 BKN015 PROB40
TEMPO 0512/0515 5000 -TSRA FEW012CB BKN014

Example: see airport list